sensor_id;sensor_type;location;lat;lon;timestamp;P1;durP1;ratioP1;P2;durP2;ratioP2
59766;SDS011;46248;58.364;25.582;2023-08-21T00:00:15;8.60;;;5.57;;
59766;SDS011;46248;58.364;25.582;2023-08-21T00:03:36;7.22;;;5.43;;
59766;SDS011;46248;58.364;25.582;2023-08-21T00:06:58;6.90;;;5.35;;
59766;SDS011;46248;58.364;25.582;2023-08-21T00:10:20;7.90;;;5.53;;
59766;SDS011;46248;58.364;25.582;2023-08-21T00:13:43;8.02;;;5.53;;
59766;SDS011;46248;58.364;25.582;2023-08-21T00:17:26;8.35;;;5.68;;
59766;SDS011;46248;58.364;25.582;2023-08-21T00:20:55;7.80;;;5.72;;
59766;SDS011;46248;58.364;25.582;2023-08-21T00:24:16;8.32;;;5.45;;
59766;SDS011;46248;58.364;25.582;2023-08-21T00:27:38;8.60;;;6.18;;
59766;SDS011;46248;58.364;25.582;2023-08-21T00:31:02;9.00;;;5.03;;
59766;SDS011;46248;58.364;25.582;2023-08-21T00:34:25;7.28;;;5.40;;
59766;SDS011;46248;58.364;25.582;2023-08-21T00:37:47;8.43;;;5.80;;
59766;SDS011;46248;58.364;25.582;2023-08-21T00:41:09;8.15;;;5.35;;
59766;SDS011;46248;58.364;25.582;2023-08-21T00:44:31;8.95;;;6.00;;
59766;SDS011;46248;58.364;25.582;2023-08-21T00:47:54;7.30;;;5.47;;
59766;SDS011;46248;58.364;25.582;2023-08-21T00:51:16;8.05;;;5.60;;
59766;SDS011;46248;58.364;25.582;2023-08-21T00:54:38;7.15;;;5.53;;
59766;SDS011;46248;58.364;25.582;2023-08-21T00:58:00;7.03;;;4.97;;
59766;SDS011;46248;58.364;25.582;2023-08-21T01:01:23;8.57;;;6.25;;
59766;SDS011;46248;58.364;25.582;2023-08-21T01:04:47;8.55;;;6.47;;
59766;SDS011;46248;58.364;25.582;2023-08-21T01:08:10;7.28;;;5.47;;
59766;SDS011;46248;58.364;25.582;2023-08-21T01:11:38;8.25;;;5.03;;
59766;SDS011;46248;58.364;25.582;2023-08-21T01:15:05;8.68;;;6.20;;
59766;SDS011;46248;58.364;25.582;2023-08-21T01:18:29;7.82;;;5.82;;
59766;SDS011;46248;58.364;25.582;2023-08-21T01:21:54;8.60;;;5.95;;
59766;SDS011;46248;58.364;25.582;2023-08-21T01:25:17;7.13;;;5.05;;
59766;SDS011;46248;58.364;25.582;2023-08-21T01:28:39;10.48;;;6.32;;
59766;SDS011;46248;58.364;25.582;2023-08-21T01:32:03;8.02;;;5.35;;
59766;SDS011;46248;58.364;25.582;2023-08-21T01:35:28;10.07;;;5.97;;
59766;SDS011;46248;58.364;25.582;2023-08-21T01:38:51;8.13;;;6.07;;
59766;SDS011;46248;58.364;25.582;2023-08-21T01:42:15;9.00;;;5.75;;
59766;SDS011;46248;58.364;25.582;2023-08-21T01:45:36;7.25;;;5.47;;
59766;SDS011;46248;58.364;25.582;2023-08-21T01:48:59;10.35;;;6.22;;
59766;SDS011;46248;58.364;25.582;2023-08-21T01:52:20;8.57;;;6.30;;
59766;SDS011;46248;58.364;25.582;2023-08-21T01:55:42;10.02;;;6.78;;
59766;SDS011;46248;58.364;25.582;2023-08-21T01:59:05;9.80;;;6.38;;
59766;SDS011;46248;58.364;25.582;2023-08-21T02:02:27;8.63;;;5.97;;
59766;SDS011;46248;58.364;25.582;2023-08-21T02:05:49;9.15;;;6.15;;
59766;SDS011;46248;58.364;25.582;2023-08-21T02:09:11;8.73;;;6.07;;
59766;SDS011;46248;58.364;25.582;2023-08-21T02:12:33;11.70;;;6.80;;
59766;SDS011;46248;58.364;25.582;2023-08-21T02:16:01;9.00;;;5.93;;
59766;SDS011;46248;58.364;25.582;2023-08-21T02:19:22;8.77;;;5.93;;
59766;SDS011;46248;58.364;25.582;2023-08-21T02:22:44;8.40;;;5.93;;
59766;SDS011;46248;58.364;25.582;2023-08-21T02:26:06;8.75;;;6.30;;
59766;SDS011;46248;58.364;25.582;2023-08-21T02:29:27;11.52;;;6.50;;
59766;SDS011;46248;58.364;25.582;2023-08-21T02:32:50;10.07;;;6.60;;
59766;SDS011;46248;58.364;25.582;2023-08-21T02:36:12;9.75;;;5.93;;
59766;SDS011;46248;58.364;25.582;2023-08-21T02:39:34;10.07;;;6.28;;
59766;SDS011;46248;58.364;25.582;2023-08-21T02:42:56;9.20;;;5.65;;
59766;SDS011;46248;58.364;25.582;2023-08-21T02:46:17;10.10;;;6.47;;
59766;SDS011;46248;58.364;25.582;2023-08-21T02:49:41;13.90;;;6.85;;
59766;SDS011;46248;58.364;25.582;2023-08-21T02:53:03;12.05;;;6.88;;
59766;SDS011;46248;58.364;25.582;2023-08-21T02:56:25;10.82;;;6.45;;
59766;SDS011;46248;58.364;25.582;2023-08-21T02:59:47;16.13;;;7.88;;
59766;SDS011;46248;58.364;25.582;2023-08-21T03:03:09;13.38;;;6.95;;
59766;SDS011;46248;58.364;25.582;2023-08-21T03:06:33;10.07;;;6.68;;
59766;SDS011;46248;58.364;25.582;2023-08-21T03:09:55;9.30;;;6.35;;
59766;SDS011;46248;58.364;25.582;2023-08-21T03:13:17;10.10;;;5.95;;
59766;SDS011;46248;58.364;25.582;2023-08-21T03:16:39;10.38;;;6.22;;
59766;SDS011;46248;58.364;25.582;2023-08-21T03:20:01;11.75;;;6.95;;
59766;SDS011;46248;58.364;25.582;2023-08-21T03:23:26;9.88;;;6.72;;
59766;SDS011;46248;58.364;25.582;2023-08-21T03:26:48;14.50;;;7.88;;
59766;SDS011;46248;58.364;25.582;2023-08-21T03:30:10;14.98;;;8.55;;
59766;SDS011;46248;58.364;25.582;2023-08-21T03:33:35;14.70;;;7.57;;
59766;SDS011;46248;58.364;25.582;2023-08-21T03:36:57;13.48;;;7.20;;
59766;SDS011;46248;58.364;25.582;2023-08-21T03:40:20;13.68;;;7.45;;
59766;SDS011;46248;58.364;25.582;2023-08-21T03:43:42;10.80;;;7.07;;
59766;SDS011;46248;58.364;25.582;2023-08-21T03:47:04;14.60;;;7.63;;
59766;SDS011;46248;58.364;25.582;2023-08-21T03:50:26;16.20;;;7.25;;
59766;SDS011;46248;58.364;25.582;2023-08-21T03:53:48;12.15;;;7.10;;
59766;SDS011;46248;58.364;25.582;2023-08-21T03:57:11;13.02;;;6.85;;
59766;SDS011;46248;58.364;25.582;2023-08-21T04:00:33;12.90;;;7.25;;
59766;SDS011;46248;58.364;25.582;2023-08-21T04:03:55;13.07;;;6.90;;
59766;SDS011;46248;58.364;25.582;2023-08-21T04:07:17;14.18;;;7.13;;
59766;SDS011;46248;58.364;25.582;2023-08-21T04:10:39;16.70;;;8.68;;
59766;SDS011;46248;58.364;25.582;2023-08-21T04:14:03;12.30;;;7.47;;
59766;SDS011;46248;58.364;25.582;2023-08-21T04:17:25;13.40;;;8.07;;
59766;SDS011;46248;58.364;25.582;2023-08-21T04:20:47;13.45;;;7.35;;
59766;SDS011;46248;58.364;25.582;2023-08-21T04:24:09;14.07;;;6.90;;
59766;SDS011;46248;58.364;25.582;2023-08-21T04:27:30;13.25;;;6.85;;
59766;SDS011;46248;58.364;25.582;2023-08-21T04:30:54;12.77;;;7.35;;
59766;SDS011;46248;58.364;25.582;2023-08-21T04:34:17;14.00;;;6.60;;
59766;SDS011;46248;58.364;25.582;2023-08-21T04:37:46;11.88;;;6.97;;
59766;SDS011;46248;58.364;25.582;2023-08-21T04:41:08;12.38;;;6.80;;
59766;SDS011;46248;58.364;25.582;2023-08-21T04:44:31;15.57;;;7.40;;
59766;SDS011;46248;58.364;25.582;2023-08-21T04:47:54;12.13;;;6.75;;
59766;SDS011;46248;58.364;25.582;2023-08-21T04:51:17;13.05;;;6.70;;
59766;SDS011;46248;58.364;25.582;2023-08-21T04:54:40;10.13;;;6.53;;
59766;SDS011;46248;58.364;25.582;2023-08-21T04:58:06;12.05;;;6.13;;
59766;SDS011;46248;58.364;25.582;2023-08-21T05:01:27;13.73;;;6.38;;
59766;SDS011;46248;58.364;25.582;2023-08-21T05:04:51;11.13;;;7.20;;
59766;SDS011;46248;58.364;25.582;2023-08-21T05:08:12;13.57;;;7.07;;
59766;SDS011;46248;58.364;25.582;2023-08-21T05:11:34;12.63;;;6.72;;
59766;SDS011;46248;58.364;25.582;2023-08-21T05:14:56;11.27;;;7.07;;
59766;SDS011;46248;58.364;25.582;2023-08-21T05:18:18;13.13;;;8.25;;
59766;SDS011;46248;58.364;25.582;2023-08-21T05:21:42;12.45;;;7.97;;
59766;SDS011;46248;58.364;25.582;2023-08-21T05:25:05;12.50;;;6.93;;
59766;SDS011;46248;58.364;25.582;2023-08-21T05:28:27;13.27;;;6.82;;
59766;SDS011;46248;58.364;25.582;2023-08-21T05:31:49;11.73;;;6.68;;
59766;SDS011;46248;58.364;25.582;2023-08-21T05:35:11;13.15;;;7.80;;
59766;SDS011;46248;58.364;25.582;2023-08-21T05:38:35;10.48;;;6.28;;
59766;SDS011;46248;58.364;25.582;2023-08-21T05:41:56;11.65;;;6.80;;
59766;SDS011;46248;58.364;25.582;2023-08-21T05:45:18;9.27;;;6.25;;
59766;SDS011;46248;58.364;25.582;2023-08-21T05:48:40;10.32;;;6.18;;
59766;SDS011;46248;58.364;25.582;2023-08-21T05:52:02;10.88;;;6.72;;
59766;SDS011;46248;58.364;25.582;2023-08-21T05:55:25;9.23;;;6.40;;
59766;SDS011;46248;58.364;25.582;2023-08-21T05:58:47;10.73;;;6.10;;
59766;SDS011;46248;58.364;25.582;2023-08-21T06:02:09;7.82;;;5.57;;
59766;SDS011;46248;58.364;25.582;2023-08-21T06:05:31;11.98;;;6.90;;
59766;SDS011;46248;58.364;25.582;2023-08-21T06:08:53;9.88;;;5.80;;
59766;SDS011;46248;58.364;25.582;2023-08-21T06:12:16;10.88;;;6.25;;
59766;SDS011;46248;58.364;25.582;2023-08-21T06:15:39;13.57;;;6.75;;
59766;SDS011;46248;58.364;25.582;2023-08-21T06:19:05;9.70;;;6.10;;
59766;SDS011;46248;58.364;25.582;2023-08-21T06:22:26;12.57;;;6.50;;
59766;SDS011;46248;58.364;25.582;2023-08-21T06:25:48;9.55;;;5.80;;
59766;SDS011;46248;58.364;25.582;2023-08-21T06:29:11;7.18;;;5.70;;
59766;SDS011;46248;58.364;25.582;2023-08-21T06:32:33;9.63;;;5.90;;
59766;SDS011;46248;58.364;25.582;2023-08-21T06:35:56;11.20;;;7.03;;
59766;SDS011;46248;58.364;25.582;2023-08-21T06:39:18;11.40;;;6.63;;
59766;SDS011;46248;58.364;25.582;2023-08-21T06:42:39;8.95;;;5.95;;
59766;SDS011;46248;58.364;25.582;2023-08-21T06:46:02;9.25;;;6.38;;
59766;SDS011;46248;58.364;25.582;2023-08-21T06:49:25;12.32;;;7.28;;
59766;SDS011;46248;58.364;25.582;2023-08-21T06:52:46;10.00;;;6.60;;
59766;SDS011;46248;58.364;25.582;2023-08-21T06:56:08;10.38;;;6.63;;
59766;SDS011;46248;58.364;25.582;2023-08-21T06:59:30;9.90;;;7.20;;
59766;SDS011;46248;58.364;25.582;2023-08-21T07:02:57;9.27;;;5.82;;
59766;SDS011;46248;58.364;25.582;2023-08-21T07:06:19;10.88;;;5.85;;
59766;SDS011;46248;58.364;25.582;2023-08-21T07:09:41;7.88;;;6.00;;
59766;SDS011;46248;58.364;25.582;2023-08-21T07:13:03;9.90;;;5.80;;
59766;SDS011;46248;58.364;25.582;2023-08-21T07:16:25;7.22;;;5.55;;
59766;SDS011;46248;58.364;25.582;2023-08-21T07:19:48;7.80;;;5.57;;
59766;SDS011;46248;58.364;25.582;2023-08-21T07:23:12;10.48;;;5.95;;
59766;SDS011;46248;58.364;25.582;2023-08-21T07:26:34;9.30;;;6.20;;
59766;SDS011;46248;58.364;25.582;2023-08-21T07:29:56;9.77;;;5.90;;
59766;SDS011;46248;58.364;25.582;2023-08-21T07:33:18;10.05;;;5.28;;
59766;SDS011;46248;58.364;25.582;2023-08-21T07:36:41;7.15;;;5.47;;
59766;SDS011;46248;58.364;25.582;2023-08-21T07:40:04;7.45;;;5.30;;
59766;SDS011;46248;58.364;25.582;2023-08-21T07:43:26;8.23;;;5.40;;
59766;SDS011;46248;58.364;25.582;2023-08-21T07:46:48;8.63;;;5.32;;
59766;SDS011;46248;58.364;25.582;2023-08-21T07:50:10;7.53;;;5.05;;
59766;SDS011;46248;58.364;25.582;2023-08-21T07:53:36;6.80;;;5.18;;
59766;SDS011;46248;58.364;25.582;2023-08-21T07:56:58;5.88;;;4.55;;
59766;SDS011;46248;58.364;25.582;2023-08-21T08:00:19;6.32;;;5.07;;
59766;SDS011;46248;58.364;25.582;2023-08-21T08:03:41;7.25;;;4.95;;
59766;SDS011;46248;58.364;25.582;2023-08-21T08:07:03;7.75;;;5.40;;
59766;SDS011;46248;58.364;25.582;2023-08-21T08:10:27;6.00;;;4.97;;
59766;SDS011;46248;58.364;25.582;2023-08-21T08:13:48;7.90;;;5.18;;
59766;SDS011;46248;58.364;25.582;2023-08-21T08:17:10;8.73;;;5.57;;
59766;SDS011;46248;58.364;25.582;2023-08-21T08:20:32;7.40;;;5.15;;
59766;SDS011;46248;58.364;25.582;2023-08-21T08:23:55;8.55;;;6.10;;
59766;SDS011;46248;58.364;25.582;2023-08-21T08:27:19;7.93;;;5.93;;
59766;SDS011;46248;58.364;25.582;2023-08-21T08:30:41;6.38;;;5.63;;
59766;SDS011;46248;58.364;25.582;2023-08-21T08:34:03;7.63;;;6.00;;
59766;SDS011;46248;58.364;25.582;2023-08-21T08:37:25;9.18;;;5.95;;
59766;SDS011;46248;58.364;25.582;2023-08-21T08:40:47;9.55;;;6.53;;
59766;SDS011;46248;58.364;25.582;2023-08-21T08:44:15;9.07;;;6.75;;
59766;SDS011;46248;58.364;25.582;2023-08-21T08:47:38;9.38;;;5.28;;
59766;SDS011;46248;58.364;25.582;2023-08-21T08:51:01;8.65;;;5.50;;
59766;SDS011;46248;58.364;25.582;2023-08-21T08:54:25;8.40;;;5.95;;
59766;SDS011;46248;58.364;25.582;2023-08-21T08:57:48;9.60;;;5.97;;
59766;SDS011;46248;58.364;25.582;2023-08-21T09:01:11;7.13;;;5.30;;
59766;SDS011;46248;58.364;25.582;2023-08-21T09:04:33;7.72;;;5.90;;
59766;SDS011;46248;58.364;25.582;2023-08-21T09:08:02;8.02;;;5.30;;
59766;SDS011;46248;58.364;25.582;2023-08-21T09:11:25;6.95;;;5.63;;
59766;SDS011;46248;58.364;25.582;2023-08-21T09:14:47;7.90;;;5.57;;
59766;SDS011;46248;58.364;25.582;2023-08-21T09:18:10;7.90;;;6.13;;
59766;SDS011;46248;58.364;25.582;2023-08-21T09:21:33;6.18;;;5.32;;
59766;SDS011;46248;58.364;25.582;2023-08-21T09:25:02;9.45;;;5.55;;
59766;SDS011;46248;58.364;25.582;2023-08-21T09:28:27;7.10;;;4.85;;
59766;SDS011;46248;58.364;25.582;2023-08-21T09:31:49;7.38;;;5.50;;
59766;SDS011;46248;58.364;25.582;2023-08-21T09:35:14;7.05;;;5.97;;
59766;SDS011;46248;58.364;25.582;2023-08-21T09:38:38;7.95;;;6.07;;
59766;SDS011;46248;58.364;25.582;2023-08-21T09:42:04;8.23;;;5.90;;
59766;SDS011;46248;58.364;25.582;2023-08-21T09:45:27;7.78;;;5.85;;
59766;SDS011;46248;58.364;25.582;2023-08-21T09:48:50;7.72;;;5.55;;
59766;SDS011;46248;58.364;25.582;2023-08-21T09:52:14;6.55;;;5.82;;
59766;SDS011;46248;58.364;25.582;2023-08-21T09:55:36;6.72;;;5.50;;
59766;SDS011;46248;58.364;25.582;2023-08-21T09:59:00;6.28;;;5.05;;
59766;SDS011;46248;58.364;25.582;2023-08-21T10:02:22;7.82;;;5.78;;
59766;SDS011;46248;58.364;25.582;2023-08-21T10:05:47;6.38;;;5.38;;
59766;SDS011;46248;58.364;25.582;2023-08-21T10:09:11;7.70;;;4.93;;
59766;SDS011;46248;58.364;25.582;2023-08-21T10:12:34;7.70;;;5.75;;
59766;SDS011;46248;58.364;25.582;2023-08-21T10:15:56;9.23;;;6.43;;
59766;SDS011;46248;58.364;25.582;2023-08-21T10:19:18;8.13;;;5.68;;
59766;SDS011;46248;58.364;25.582;2023-08-21T10:22:42;10.77;;;7.15;;
59766;SDS011;46248;58.364;25.582;2023-08-21T10:26:06;9.98;;;6.80;;
59766;SDS011;46248;58.364;25.582;2023-08-21T10:29:31;9.77;;;6.60;;
59766;SDS011;46248;58.364;25.582;2023-08-21T10:32:53;11.23;;;6.90;;
59766;SDS011;46248;58.364;25.582;2023-08-21T10:36:23;7.95;;;5.88;;
59766;SDS011;46248;58.364;25.582;2023-08-21T10:39:58;9.90;;;6.82;;
59766;SDS011;46248;58.364;25.582;2023-08-21T10:43:41;9.43;;;6.03;;
59766;SDS011;46248;58.364;25.582;2023-08-21T10:47:14;11.48;;;7.05;;
59766;SDS011;46248;58.364;25.582;2023-08-21T10:50:39;8.73;;;6.38;;
59766;SDS011;46248;58.364;25.582;2023-08-21T10:54:10;8.52;;;6.35;;
59766;SDS011;46248;58.364;25.582;2023-08-21T10:57:32;8.05;;;6.93;;
59766;SDS011;46248;58.364;25.582;2023-08-21T11:00:57;8.32;;;6.25;;
59766;SDS011;46248;58.364;25.582;2023-08-21T11:04:19;7.38;;;5.47;;
59766;SDS011;46248;58.364;25.582;2023-08-21T11:07:42;10.00;;;6.28;;
59766;SDS011;46248;58.364;25.582;2023-08-21T11:11:05;8.13;;;5.97;;
59766;SDS011;46248;58.364;25.582;2023-08-21T11:14:27;14.93;;;7.50;;
59766;SDS011;46248;58.364;25.582;2023-08-21T11:17:54;9.15;;;6.57;;
59766;SDS011;46248;58.364;25.582;2023-08-21T11:21:19;7.90;;;5.68;;
59766;SDS011;46248;58.364;25.582;2023-08-21T11:24:46;7.78;;;6.18;;
59766;SDS011;46248;58.364;25.582;2023-08-21T11:28:08;7.22;;;6.22;;
59766;SDS011;46248;58.364;25.582;2023-08-21T11:31:30;6.55;;;5.78;;
59766;SDS011;46248;58.364;25.582;2023-08-21T11:34:54;6.50;;;5.32;;
59766;SDS011;46248;58.364;25.582;2023-08-21T11:38:18;6.30;;;5.47;;
59766;SDS011;46248;58.364;25.582;2023-08-21T11:41:53;7.10;;;6.03;;
59766;SDS011;46248;58.364;25.582;2023-08-21T11:45:16;6.70;;;5.82;;
59766;SDS011;46248;58.364;25.582;2023-08-21T11:48:41;6.75;;;6.05;;
59766;SDS011;46248;58.364;25.582;2023-08-21T11:52:05;6.28;;;5.30;;
59766;SDS011;46248;58.364;25.582;2023-08-21T11:55:26;6.53;;;5.75;;
59766;SDS011;46248;58.364;25.582;2023-08-21T11:58:50;11.55;;;6.75;;
59766;SDS011;46248;58.364;25.582;2023-08-21T12:02:13;11.27;;;6.18;;
59766;SDS011;46248;58.364;25.582;2023-08-21T12:05:42;6.22;;;5.40;;
59766;SDS011;46248;58.364;25.582;2023-08-21T12:09:05;6.07;;;5.47;;
59766;SDS011;46248;58.364;25.582;2023-08-21T12:12:27;7.60;;;6.00;;
59766;SDS011;46248;58.364;25.582;2023-08-21T12:15:49;7.80;;;5.45;;
59766;SDS011;46248;58.364;25.582;2023-08-21T12:19:11;9.02;;;6.35;;
59766;SDS011;46248;58.364;25.582;2023-08-21T12:22:34;6.60;;;5.82;;
59766;SDS011;46248;58.364;25.582;2023-08-21T12:26:00;7.97;;;6.60;;
59766;SDS011;46248;58.364;25.582;2023-08-21T12:29:22;7.40;;;4.93;;
59766;SDS011;46248;58.364;25.582;2023-08-21T12:32:44;6.20;;;5.22;;
59766;SDS011;46248;58.364;25.582;2023-08-21T12:36:07;6.22;;;5.60;;
59766;SDS011;46248;58.364;25.582;2023-08-21T12:39:30;7.45;;;6.03;;
59766;SDS011;46248;58.364;25.582;2023-08-21T12:42:53;8.32;;;6.18;;
59766;SDS011;46248;58.364;25.582;2023-08-21T12:46:15;6.22;;;5.38;;
59766;SDS011;46248;58.364;25.582;2023-08-21T12:49:37;6.47;;;5.70;;
59766;SDS011;46248;58.364;25.582;2023-08-21T12:52:59;5.97;;;5.38;;
59766;SDS011;46248;58.364;25.582;2023-08-21T12:56:21;6.00;;;5.40;;
59766;SDS011;46248;58.364;25.582;2023-08-21T12:59:44;8.63;;;5.40;;
59766;SDS011;46248;58.364;25.582;2023-08-21T13:03:06;6.07;;;5.05;;
59766;SDS011;46248;58.364;25.582;2023-08-21T13:06:28;6.20;;;4.68;;
59766;SDS011;46248;58.364;25.582;2023-08-21T13:09:50;6.18;;;5.57;;
59766;SDS011;46248;58.364;25.582;2023-08-21T13:13:12;6.43;;;4.93;;
59766;SDS011;46248;58.364;25.582;2023-08-21T13:16:35;7.57;;;6.22;;
59766;SDS011;46248;58.364;25.582;2023-08-21T13:19:57;6.25;;;5.40;;
59766;SDS011;46248;58.364;25.582;2023-08-21T13:23:19;6.72;;;6.00;;
59766;SDS011;46248;58.364;25.582;2023-08-21T13:26:41;7.30;;;5.18;;
59766;SDS011;46248;58.364;25.582;2023-08-21T13:30:04;6.03;;;5.40;;
59766;SDS011;46248;58.364;25.582;2023-08-21T13:33:29;5.97;;;5.38;;
59766;SDS011;46248;58.364;25.582;2023-08-21T13:36:50;5.60;;;4.97;;
59766;SDS011;46248;58.364;25.582;2023-08-21T13:40:12;5.85;;;4.93;;
59766;SDS011;46248;58.364;25.582;2023-08-21T13:43:36;6.35;;;5.10;;
59766;SDS011;46248;58.364;25.582;2023-08-21T13:47:00;6.53;;;5.35;;
59766;SDS011;46248;58.364;25.582;2023-08-21T13:50:22;6.85;;;5.65;;
59766;SDS011;46248;58.364;25.582;2023-08-21T13:53:44;5.05;;;4.53;;
59766;SDS011;46248;58.364;25.582;2023-08-21T13:57:06;6.10;;;4.93;;
59766;SDS011;46248;58.364;25.582;2023-08-21T14:00:27;5.72;;;5.10;;
59766;SDS011;46248;58.364;25.582;2023-08-21T14:03:49;5.45;;;4.57;;
59766;SDS011;46248;58.364;25.582;2023-08-21T14:07:13;5.80;;;4.15;;
59766;SDS011;46248;58.364;25.582;2023-08-21T14:10:34;5.75;;;5.10;;
59766;SDS011;46248;58.364;25.582;2023-08-21T14:13:56;6.00;;;5.07;;
59766;SDS011;46248;58.364;25.582;2023-08-21T14:17:18;6.22;;;4.85;;
59766;SDS011;46248;58.364;25.582;2023-08-21T14:20:41;6.38;;;5.32;;
59766;SDS011;46248;58.364;25.582;2023-08-21T14:24:04;6.63;;;5.60;;
59766;SDS011;46248;58.364;25.582;2023-08-21T14:27:28;5.63;;;4.28;;
59766;SDS011;46248;58.364;25.582;2023-08-21T14:30:50;6.60;;;4.68;;
59766;SDS011;46248;58.364;25.582;2023-08-21T14:34:12;8.98;;;4.50;;
59766;SDS011;46248;58.364;25.582;2023-08-21T14:37:34;5.93;;;5.38;;
59766;SDS011;46248;58.364;25.582;2023-08-21T14:40:57;5.75;;;4.32;;
59766;SDS011;46248;58.364;25.582;2023-08-21T14:44:19;7.03;;;5.55;;
59766;SDS011;46248;58.364;25.582;2023-08-21T14:47:42;4.80;;;4.00;;
59766;SDS011;46248;58.364;25.582;2023-08-21T14:51:04;6.32;;;5.13;;
59766;SDS011;46248;58.364;25.582;2023-08-21T14:54:26;5.63;;;5.10;;
59766;SDS011;46248;58.364;25.582;2023-08-21T14:57:49;4.95;;;4.45;;
59766;SDS011;46248;58.364;25.582;2023-08-21T15:01:10;6.28;;;5.47;;
59766;SDS011;46248;58.364;25.582;2023-08-21T15:04:32;4.95;;;4.22;;
59766;SDS011;46248;58.364;25.582;2023-08-21T15:07:54;7.28;;;5.90;;
59766;SDS011;46248;58.364;25.582;2023-08-21T15:11:16;4.88;;;4.47;;
59766;SDS011;46248;58.364;25.582;2023-08-21T15:14:39;4.65;;;4.20;;
59766;SDS011;46248;58.364;25.582;2023-08-21T15:18:01;5.03;;;4.10;;
59766;SDS011;46248;58.364;25.582;2023-08-21T15:21:22;5.25;;;4.47;;
59766;SDS011;46248;58.364;25.582;2023-08-21T15:24:44;5.35;;;4.53;;
59766;SDS011;46248;58.364;25.582;2023-08-21T15:28:06;4.70;;;3.97;;
59766;SDS011;46248;58.364;25.582;2023-08-21T15:31:29;5.32;;;4.18;;
59766;SDS011;46248;58.364;25.582;2023-08-21T15:34:52;4.80;;;4.35;;
59766;SDS011;46248;58.364;25.582;2023-08-21T15:38:13;4.65;;;4.28;;
59766;SDS011;46248;58.364;25.582;2023-08-21T15:41:35;5.35;;;3.95;;
59766;SDS011;46248;58.364;25.582;2023-08-21T15:44:56;5.47;;;4.50;;
59766;SDS011;46248;58.364;25.582;2023-08-21T15:48:21;4.75;;;3.90;;
59766;SDS011;46248;58.364;25.582;2023-08-21T15:51:43;5.18;;;4.35;;
59766;SDS011;46248;58.364;25.582;2023-08-21T15:55:07;7.40;;;4.45;;
59766;SDS011;46248;58.364;25.582;2023-08-21T15:58:28;5.18;;;4.20;;
59766;SDS011;46248;58.364;25.582;2023-08-21T16:01:50;4.60;;;4.00;;
59766;SDS011;46248;58.364;25.582;2023-08-21T16:05:13;6.28;;;4.47;;
59766;SDS011;46248;58.364;25.582;2023-08-21T16:08:36;4.88;;;4.20;;
59766;SDS011;46248;58.364;25.582;2023-08-21T16:11:58;7.25;;;4.60;;
59766;SDS011;46248;58.364;25.582;2023-08-21T16:15:20;5.93;;;4.80;;
59766;SDS011;46248;58.364;25.582;2023-08-21T16:18:42;5.00;;;4.10;;
59766;SDS011;46248;58.364;25.582;2023-08-21T16:22:05;4.82;;;4.13;;
59766;SDS011;46248;58.364;25.582;2023-08-21T16:25:27;7.93;;;5.18;;
59766;SDS011;46248;58.364;25.582;2023-08-21T16:28:48;5.38;;;4.65;;
59766;SDS011;46248;58.364;25.582;2023-08-21T16:32:10;5.22;;;3.67;;
59766;SDS011;46248;58.364;25.582;2023-08-21T16:35:32;4.05;;;3.50;;
59766;SDS011;46248;58.364;25.582;2023-08-21T16:38:55;3.58;;;3.13;;
59766;SDS011;46248;58.364;25.582;2023-08-21T16:42:17;6.18;;;3.30;;
59766;SDS011;46248;58.364;25.582;2023-08-21T16:45:39;4.38;;;3.13;;
59766;SDS011;46248;58.364;25.582;2023-08-21T16:49:02;4.88;;;3.58;;
59766;SDS011;46248;58.364;25.582;2023-08-21T16:52:24;3.83;;;3.00;;
59766;SDS011;46248;58.364;25.582;2023-08-21T16:55:47;3.53;;;2.63;;
59766;SDS011;46248;58.364;25.582;2023-08-21T16:59:09;3.63;;;3.25;;
59766;SDS011;46248;58.364;25.582;2023-08-21T17:02:32;3.88;;;3.45;;
59766;SDS011;46248;58.364;25.582;2023-08-21T17:05:54;7.88;;;4.05;;
59766;SDS011;46248;58.364;25.582;2023-08-21T17:09:16;4.70;;;3.50;;
59766;SDS011;46248;58.364;25.582;2023-08-21T17:12:39;3.78;;;3.40;;
59766;SDS011;46248;58.364;25.582;2023-08-21T17:16:02;3.65;;;2.88;;
59766;SDS011;46248;58.364;25.582;2023-08-21T17:19:24;5.25;;;3.10;;
59766;SDS011;46248;58.364;25.582;2023-08-21T17:22:46;4.53;;;3.47;;
59766;SDS011;46248;58.364;25.582;2023-08-21T17:26:07;5.22;;;4.07;;
59766;SDS011;46248;58.364;25.582;2023-08-21T17:29:31;3.53;;;3.15;;
59766;SDS011;46248;58.364;25.582;2023-08-21T17:32:52;4.40;;;4.00;;
59766;SDS011;46248;58.364;25.582;2023-08-21T17:36:16;5.00;;;3.78;;
59766;SDS011;46248;58.364;25.582;2023-08-21T17:39:39;4.22;;;3.83;;
59766;SDS011;46248;58.364;25.582;2023-08-21T17:43:03;4.07;;;3.70;;
59766;SDS011;46248;58.364;25.582;2023-08-21T17:46:27;4.55;;;3.85;;
59766;SDS011;46248;58.364;25.582;2023-08-21T17:49:49;4.15;;;3.50;;
59766;SDS011;46248;58.364;25.582;2023-08-21T17:53:11;4.22;;;3.13;;
59766;SDS011;46248;58.364;25.582;2023-08-21T17:56:33;4.57;;;3.60;;
59766;SDS011;46248;58.364;25.582;2023-08-21T17:59:55;3.80;;;3.25;;
59766;SDS011;46248;58.364;25.582;2023-08-21T18:03:18;5.20;;;3.17;;
59766;SDS011;46248;58.364;25.582;2023-08-21T18:06:40;4.07;;;3.67;;
59766;SDS011;46248;58.364;25.582;2023-08-21T18:10:03;4.57;;;3.70;;
59766;SDS011;46248;58.364;25.582;2023-08-21T18:13:25;4.10;;;3.20;;
59766;SDS011;46248;58.364;25.582;2023-08-21T18:16:48;4.40;;;4.00;;
59766;SDS011;46248;58.364;25.582;2023-08-21T18:20:11;5.05;;;3.45;;
59766;SDS011;46248;58.364;25.582;2023-08-21T18:23:33;3.70;;;3.38;;
59766;SDS011;46248;58.364;25.582;2023-08-21T18:26:55;4.38;;;3.38;;
59766;SDS011;46248;58.364;25.582;2023-08-21T18:30:18;4.47;;;3.65;;
59766;SDS011;46248;58.364;25.582;2023-08-21T18:33:40;3.67;;;3.38;;
59766;SDS011;46248;58.364;25.582;2023-08-21T18:37:06;4.47;;;3.60;;
59766;SDS011;46248;58.364;25.582;2023-08-21T18:40:29;4.38;;;3.50;;
59766;SDS011;46248;58.364;25.582;2023-08-21T18:43:50;5.40;;;4.05;;
59766;SDS011;46248;58.364;25.582;2023-08-21T18:47:12;5.75;;;4.00;;
59766;SDS011;46248;58.364;25.582;2023-08-21T18:50:35;5.15;;;3.72;;
59766;SDS011;46248;58.364;25.582;2023-08-21T18:54:01;3.80;;;3.20;;
59766;SDS011;46248;58.364;25.582;2023-08-21T18:57:24;5.32;;;3.72;;
59766;SDS011;46248;58.364;25.582;2023-08-21T19:00:45;3.80;;;3.40;;
59766;SDS011;46248;58.364;25.582;2023-08-21T19:04:07;4.53;;;3.72;;
59766;SDS011;46248;58.364;25.582;2023-08-21T19:07:28;3.83;;;3.42;;
59766;SDS011;46248;58.364;25.582;2023-08-21T19:10:52;6.20;;;4.10;;
59766;SDS011;46248;58.364;25.582;2023-08-21T19:14:14;5.97;;;3.72;;
59766;SDS011;46248;58.364;25.582;2023-08-21T19:17:36;4.30;;;3.83;;
59766;SDS011;46248;58.364;25.582;2023-08-21T19:20:59;5.60;;;3.97;;
59766;SDS011;46248;58.364;25.582;2023-08-21T19:24:21;7.50;;;4.20;;
59766;SDS011;46248;58.364;25.582;2023-08-21T19:27:44;5.15;;;4.15;;
59766;SDS011;46248;58.364;25.582;2023-08-21T19:31:07;5.43;;;4.28;;
59766;SDS011;46248;58.364;25.582;2023-08-21T19:34:30;4.68;;;3.55;;
59766;SDS011;46248;58.364;25.582;2023-08-21T19:37:51;5.93;;;3.80;;
59766;SDS011;46248;58.364;25.582;2023-08-21T19:41:13;5.75;;;3.90;;
59766;SDS011;46248;58.364;25.582;2023-08-21T19:44:37;5.10;;;3.38;;
59766;SDS011;46248;58.364;25.582;2023-08-21T19:47:59;4.57;;;3.83;;
59766;SDS011;46248;58.364;25.582;2023-08-21T19:51:21;5.43;;;3.38;;
59766;SDS011;46248;58.364;25.582;2023-08-21T19:54:42;5.25;;;3.70;;
59766;SDS011;46248;58.364;25.582;2023-08-21T19:58:06;4.20;;;3.25;;